Time;durP1;ratioP1;P1;durP2;ratioP2;P2;SDS_P1;SDS_P2;PMS_P1;PMS_P2;Temp;Humidity;BMP_temperature;BMP_pressure;BME280_temperature;BME280_humidity;BME280_pressure;Samples;Min_cycle;Max_cycle;Signal;HPM_P1;HPM_P2
2023/05/02 00:02:03;;;;;;;5.30;4.90;;;;;;;9.80;nan;98182.56;4997716;28;20211;-74
2023/05/02 00:04:29;;;;;;;5.40;4.87;;;;;;;9.77;nan;98182.97;4997708;28;20210;-74
2023/05/02 00:06:56;;;;;;;5.37;4.87;;;;;;;9.80;nan;98181.72;4997521;28;20314;-74
2023/05/02 00:09:22;;;;;;;4.70;4.40;;;;;;;9.81;nan;98176.22;4997248;28;20222;-74
2023/05/02 00:11:49;;;;;;;6.13;5.20;;;;;;;9.76;nan;98183.16;4997238;28;20208;-74
2023/05/02 00:14:15;;;;;;;5.43;5.00;;;;;;;9.74;nan;98177.25;4997520;28;20199;-74
2023/05/02 00:16:42;;;;;;;4.90;4.50;;;;;;;9.70;nan;98176.06;4997453;28;20338;-74
2023/05/02 00:19:08;;;;;;;5.40;4.90;;;;;;;9.70;nan;98184.84;4997440;28;20203;-74
2023/05/02 00:21:34;;;;;;;5.30;4.90;;;;;;;9.69;nan;98175.22;4997389;28;20310;-74
2023/05/02 00:24:01;;;;;;;5.47;5.00;;;;;;;9.62;nan;98174.44;4997178;28;20227;-74
2023/05/02 00:26:27;;;;;;;5.53;5.03;;;;;;;9.65;nan;98174.00;4997228;28;20227;-74
2023/05/02 00:28:54;;;;;;;5.60;5.10;;;;;;;9.63;nan;98168.13;4997233;28;20211;-74
2023/05/02 00:31:20;;;;;;;5.70;5.20;;;;;;;9.62;nan;98182.41;4997504;28;20215;-74
2023/05/02 00:33:47;;;;;;;5.57;5.07;;;;;;;9.53;nan;98178.38;4997223;28;20218;-74
2023/05/02 00:36:18;;;;;;;5.40;5.00;;;;;;;9.58;nan;98185.69;4997105;28;20305;-74
2023/05/02 00:38:45;;;;;;;5.10;4.60;;;;;;;9.52;nan;98181.22;4997144;28;20192;-74
2023/05/02 00:41:11;;;;;;;5.60;5.10;;;;;;;9.49;nan;98174.50;4997023;28;20227;-74
2023/05/02 00:43:39;;;;;;;5.60;5.07;;;;;;;9.47;nan;98178.38;4996609;28;20230;-74
2023/05/02 00:46:06;;;;;;;5.03;4.63;;;;;;;9.53;nan;98182.84;4996858;28;20229;-74
2023/05/02 00:48:32;;;;;;;5.17;4.77;;;;;;;9.54;nan;98181.81;4997962;28;20294;-74
2023/05/02 00:50:59;;;;;;;5.83;5.37;;;;;;;9.49;nan;98178.97;4996546;28;20674;-74
2023/05/02 00:53:26;;;;;;;5.43;4.93;;;;;;;9.45;nan;98180.41;4995676;28;20605;-74
2023/05/02 00:55:53;;;;;;;6.53;5.17;;;;;;;9.44;nan;98178.78;4996681;28;20227;-74
2023/05/02 00:58:20;;;;;;;5.23;4.83;;;;;;;9.41;nan;98184.53;4996504;28;20302;-74
2023/05/02 01:01:02;;;;;;;5.77;5.30;;;;;;;9.40;nan;98188.19;4996660;28;20210;-74
2023/05/02 01:03:32;;;;;;;5.40;4.90;;;;;;;9.44;nan;98181.44;4996334;28;20579;-74
2023/05/02 01:06:15;;;;;;;5.20;4.80;;;;;;;9.42;nan;98184.28;4997055;28;20575;-74
2023/05/02 01:08:53;;;;;;;5.40;4.87;;;;;;;9.38;nan;98172.50;4996246;28;20671;-74
2023/05/02 01:11:45;;;;;;;5.53;5.03;;;;;;;9.33;nan;98195.34;4996296;28;20203;-74
2023/05/02 01:14:12;;;;;;;5.70;5.20;;;;;;;9.36;nan;98192.28;4996138;28;20187;-74
2023/05/02 01:16:45;;;;;;;6.17;5.67;;;;;;;9.34;nan;98192.50;4995869;28;20234;-74
2023/05/02 01:19:22;;;;;;;5.53;5.03;;;;;;;9.44;nan;98190.22;4996633;28;20211;-74
2023/05/02 01:21:49;;;;;;;5.50;4.97;;;;;;;9.46;nan;98195.34;4963541;28;20674;-74
2023/05/02 01:24:26;;;;;;;5.70;5.30;;;;;;;9.42;nan;98194.91;4978983;28;20231;-74
2023/05/02 01:27:30;;;;;;;6.07;5.50;;;;;;;9.44;nan;98192.88;4996189;28;20237;-74
2023/05/02 01:29:58;;;;;;;6.13;5.63;;;;;;;9.41;nan;98189.84;4995870;28;20211;-74
2023/05/02 01:32:29;;;;;;;6.30;5.80;;;;;;;9.48;nan;98199.41;4996122;28;20280;-74
2023/05/02 01:34:58;;;;;;;5.17;4.77;;;;;;;9.44;nan;98200.00;4995937;28;20196;-74
2023/05/02 01:37:28;;;;;;;5.53;5.03;;;;;;;9.38;nan;98200.84;4995595;28;20662;-74
2023/05/02 01:39:56;;;;;;;5.80;5.23;;;;;;;9.32;nan;98194.53;4995944;28;20215;-74
2023/05/02 01:42:25;;;;;;;5.57;5.17;;;;;;;9.32;nan;98201.69;4995792;28;20203;-74
2023/05/02 01:44:55;;;;;;;6.07;5.47;;;;;;;9.26;nan;98207.81;4995749;28;20259;-74
2023/05/02 01:47:24;;;;;;;6.03;5.50;;;;;;;9.27;nan;98198.81;4996355;28;20253;-74
2023/05/02 01:49:50;;;;;;;5.93;5.43;;;;;;;9.18;nan;98195.59;4996587;28;20230;-74
2023/05/02 01:52:22;;;;;;;6.27;5.67;;;;;;;9.23;nan;98202.94;4995435;28;20211;-74
2023/05/02 01:54:51;;;;;;;5.63;5.07;;;;;;;9.20;nan;98201.50;4995606;28;20188;-74
2023/05/02 01:57:18;;;;;;;5.93;5.43;;;;;;;9.19;nan;98201.72;4995316;28;20574;-74
2023/05/02 01:59:49;;;;;;;6.13;5.57;;;;;;;9.11;nan;98205.41;4978328;28;20215;-74
2023/05/02 02:02:17;;;;;;;6.13;5.57;;;;;;;9.21;nan;98210.28;4995605;28;20195;-74
2023/05/02 02:04:44;;;;;;;5.80;5.33;;;;;;;9.10;nan;98209.06;4995430;28;20238;-74
2023/05/02 02:07:13;;;;;;;6.13;5.57;;;;;;;9.06;nan;98204.38;4995371;28;20235;-74
2023/05/02 02:09:40;;;;;;;5.80;5.40;;;;;;;9.07;nan;98209.47;4977873;28;20580;-74
2023/05/02 02:12:12;;;;;;;6.07;5.60;;;;;;;9.03;nan;98204.78;4995371;28;20226;-74
2023/05/02 02:14:41;;;;;;;5.80;5.30;;;;;;;8.98;nan;98210.72;4995377;28;20537;-74
2023/05/02 02:17:26;;;;;;;7.47;5.87;;;;;;;9.05;nan;98211.50;4995198;28;20238;-74
2023/05/02 02:19:55;;;;;;;6.70;6.10;;;;;;;9.07;nan;98219.25;4995257;28;20192;-74
2023/05/02 02:22:26;;;;;;;6.30;5.70;;;;;;;9.03;nan;98228.66;4995133;28;20207;-74
2023/05/02 02:24:54;;;;;;;6.20;5.50;;;;;;;9.02;nan;98229.66;4995006;28;20222;-74
2023/05/02 02:27:20;;;;;;;6.20;5.67;;;;;;;9.05;nan;98226.63;4995101;28;20214;-74
2023/05/02 02:29:47;;;;;;;6.30;5.80;;;;;;;9.01;nan;98231.50;4995040;28;20207;-74
2023/05/02 02:32:14;;;;;;;6.80;5.53;;;;;;;8.93;nan;98228.25;4994992;28;20211;-74
2023/05/02 02:34:40;;;;;;;6.90;6.20;;;;;;;8.94;nan;98232.53;4994635;28;20254;-74
2023/05/02 02:37:20;;;;;;;5.87;5.37;;;;;;;8.94;nan;98241.31;4994795;28;20223;-74
2023/05/02 02:40:05;;;;;;;6.60;5.57;;;;;;;8.92;nan;98240.69;4994940;28;20254;-74
2023/05/02 02:42:55;;;;;;;5.90;5.40;;;;;;;8.91;nan;98239.06;4994824;28;20202;-74
2023/05/02 02:45:39;;;;;;;5.90;5.40;;;;;;;8.91;nan;98241.69;4994727;28;20317;-74
2023/05/02 02:48:17;;;;;;;6.30;5.70;;;;;;;8.91;nan;98243.56;4994778;28;20199;-74
2023/05/02 02:51:02;;;;;;;5.73;5.27;;;;;;;8.90;nan;98255.97;4994721;28;20199;-74
2023/05/02 02:53:46;;;;;;;6.00;5.50;;;;;;;8.88;nan;98254.56;4994616;28;20210;-73
2023/05/02 02:56:19;;;;;;;5.87;5.33;;;;;;;8.79;nan;98259.22;4994552;28;20242;-73
2023/05/02 02:59:17;;;;;;;6.10;5.50;;;;;;;8.88;nan;98265.16;4994417;28;20196;-73
2023/05/02 03:01:48;;;;;;;6.43;5.57;;;;;;;8.83;nan;98276.34;4972542;28;20211;-73
2023/05/02 03:04:16;;;;;;;6.13;5.63;;;;;;;8.85;nan;98273.50;4994702;28;20243;-73
2023/05/02 03:06:43;;;;;;;6.33;5.77;;;;;;;8.88;nan;98273.91;4994382;28;20234;-74
2023/05/02 03:09:17;;;;;;;6.70;6.00;;;;;;;8.91;nan;98278.03;4993986;28;20215;-74
2023/05/02 03:11:45;;;;;;;6.20;5.60;;;;;;;8.94;nan;98282.91;4994724;28;20214;-73
2023/05/02 03:14:11;;;;;;;7.00;6.30;;;;;;;8.99;nan;98288.41;4994268;28;20385;-73
2023/05/02 03:16:41;;;;;;;6.57;5.97;;;;;;;9.00;nan;98284.75;4993851;28;20227;-73
2023/05/02 03:19:08;;;;;;;6.90;6.30;;;;;;;9.05;nan;98287.63;4994393;28;20218;-73
2023/05/02 03:21:35;;;;;;;6.77;5.93;;;;;;;9.03;nan;98292.28;4994111;28;20675;-73
2023/05/02 03:24:03;;;;;;;6.60;6.00;;;;;;;9.00;nan;98298.03;4993800;28;20701;-73
2023/05/02 03:26:29;;;;;;;6.80;6.03;;;;;;;9.05;nan;98295.56;4993796;28;20710;-73
2023/05/02 03:28:56;;;;;;;6.30;5.80;;;;;;;9.01;nan;98300.44;4994199;28;20207;-73
2023/05/02 03:31:23;;;;;;;6.30;5.73;;;;;;;9.02;nan;98296.78;4993748;28;20678;-76
2023/05/02 03:33:50;;;;;;;6.30;5.70;;;;;;;9.04;nan;98299.22;4993671;28;20665;-77
2023/05/02 03:36:17;;;;;;;6.63;6.03;;;;;;;9.03;nan;98303.72;4993910;28;20250;-77
2023/05/02 03:38:43;;;;;;;6.87;6.27;;;;;;;9.05;nan;98306.19;4993533;28;20299;-77
2023/05/02 03:41:09;;;;;;;6.73;6.17;;;;;;;9.01;nan;98308.41;4993636;28;20697;-77
2023/05/02 03:43:36;;;;;;;7.40;6.70;;;;;;;9.03;nan;98313.50;4993449;28;20307;-77
2023/05/02 03:46:08;;;;;;;7.43;6.77;;;;;;;9.04;nan;98315.97;4993823;28;20234;-77
2023/05/02 03:48:35;;;;;;;7.43;6.83;;;;;;;9.09;nan;98318.03;4993929;28;20217;-77
2023/05/02 03:51:03;;;;;;;7.93;7.13;;;;;;;9.14;nan;98331.50;4993900;28;20294;-77
2023/05/02 03:53:31;;;;;;;9.13;6.97;;;;;;;9.18;nan;98330.03;4993877;28;20206;-77
2023/05/02 03:55:57;;;;;;;7.73;7.03;;;;;;;9.22;nan;98333.91;4993395;28;20710;-77
2023/05/02 03:58:25;;;;;;;9.03;7.60;;;;;;;9.22;nan;98333.91;4993703;28;20213;-77
2023/05/02 04:00:52;;;;;;;9.13;8.00;;;;;;;9.21;nan;98340.25;4993494;28;20686;-77
2023/05/02 04:03:19;;;;;;;8.53;7.70;;;;;;;9.29;nan;98329.44;4993626;28;20239;-77
2023/05/02 04:05:46;;;;;;;9.23;7.53;;;;;;;9.29;nan;98337.41;4993671;28;20238;-77
2023/05/02 04:08:12;;;;;;;8.40;7.67;;;;;;;9.32;nan;98339.66;4993711;28;20223;-77
2023/05/02 04:10:39;;;;;;;8.50;7.80;;;;;;;9.36;nan;98339.03;4993708;28;20207;-77
2023/05/02 04:13:05;;;;;;;8.13;7.33;;;;;;;9.33;nan;98341.28;4993387;28;20214;-77
2023/05/02 04:15:32;;;;;;;9.50;7.43;;;;;;;9.42;nan;98348.03;4993385;28;20722;-77
2023/05/02 04:17:58;;;;;;;7.40;6.80;;;;;;;9.47;nan;98342.91;4993564;28;20576;-77
2023/05/02 04:20:25;;;;;;;7.50;6.90;;;;;;;9.46;nan;98347.38;4993186;28;20678;-77
2023/05/02 04:22:52;;;;;;;7.80;7.03;;;;;;;9.50;nan;98345.16;4993473;28;20207;-77
2023/05/02 04:25:18;;;;;;;7.37;6.57;;;;;;;9.50;nan;98353.13;4993159;28;20691;-77
2023/05/02 04:27:44;;;;;;;8.07;7.27;;;;;;;9.49;nan;98349.66;4994319;28;20226;-77
2023/05/02 04:30:11;;;;;;;7.77;6.97;;;;;;;9.52;nan;98351.06;4997128;28;20207;-77
2023/05/02 04:32:37;;;;;;;7.67;7.00;;;;;;;9.50;nan;98353.13;4996951;28;20207;-77
2023/05/02 04:35:05;;;;;;;7.13;6.50;;;;;;;9.50;nan;98359.22;4996675;28;20570;-77
2023/05/02 04:37:31;;;;;;;8.37;6.57;;;;;;;9.46;nan;98362.53;4996857;28;20208;-77
2023/05/02 04:39:57;;;;;;;7.23;6.63;;;;;;;9.48;nan;98353.34;4996466;28;20685;-77
2023/05/02 04:42:24;;;;;;;7.67;7.07;;;;;;;9.60;nan;98364.16;4996298;28;20207;-77
2023/05/02 04:44:50;;;;;;;7.50;6.80;;;;;;;9.51;nan;98360.84;4996051;28;20225;-77
2023/05/02 04:47:17;;;;;;;7.23;6.50;;;;;;;9.49;nan;98360.25;4996474;28;20203;-77
2023/05/02 04:49:43;;;;;;;6.67;6.07;;;;;;;9.56;nan;98363.72;4996799;28;20203;-76
2023/05/02 04:52:10;;;;;;;6.53;5.97;;;;;;;9.54;nan;98360.47;4996707;28;20208;-76
2023/05/02 04:54:36;;;;;;;8.97;6.40;;;;;;;9.61;nan;98368.44;4979477;28;20206;-76
2023/05/02 04:57:05;;;;;;;7.50;6.67;;;;;;;9.62;nan;98370.06;4996551;28;20228;-76
2023/05/02 04:59:32;;;;;;;7.10;6.50;;;;;;;9.61;nan;98371.06;4996406;28;20246;-76
2023/05/02 05:01:58;;;;;;;7.80;7.10;;;;;;;9.62;nan;98373.53;4995846;28;20504;-76
2023/05/02 05:04:25;;;;;;;7.20;6.60;;;;;;;9.58;nan;98364.34;4995810;28;20231;-76
2023/05/02 05:06:51;;;;;;;7.30;6.60;;;;;;;9.60;nan;98374.75;4995908;28;20223;-76
2023/05/02 05:09:17;;;;;;;8.53;7.00;;;;;;;9.68;nan;98379.88;4995957;28;20215;-76
2023/05/02 05:11:45;;;;;;;8.10;7.37;;;;;;;9.79;nan;98384.53;4996291;28;20214;-76
2023/05/02 05:14:11;;;;;;;7.20;6.60;;;;;;;9.83;nan;98391.09;4996068;28;20294;-76
2023/05/02 05:16:38;;;;;;;7.33;6.30;;;;;;;9.86;nan;98393.34;4995752;28;20254;-76
2023/05/02 05:19:04;;;;;;;7.50;6.90;;;;;;;9.88;nan;98399.25;4996046;28;20211;-76
2023/05/02 05:21:31;;;;;;;7.90;7.10;;;;;;;10.00;nan;98414.34;4995776;28;20246;-76
2023/05/02 05:23:57;;;;;;;7.20;6.60;;;;;;;10.09;nan;98417.66;4995120;28;20679;-77
2023/05/02 05:26:24;;;;;;;6.97;6.37;;;;;;;10.15;nan;98422.13;4995860;28;20231;-77
2023/05/02 05:28:50;;;;;;;7.73;6.53;;;;;;;10.25;nan;98415.38;4995897;28;20211;-77
2023/05/02 05:31:17;;;;;;;7.60;7.00;;;;;;;10.44;nan;98434.91;4995931;28;20229;-77
2023/05/02 05:33:44;;;;;;;8.53;6.40;;;;;;;10.57;nan;98434.88;4995884;28;20230;-77
2023/05/02 05:36:13;;;;;;;7.17;6.50;;;;;;;10.65;nan;98445.28;4995759;28;20238;-77
2023/05/02 05:38:39;;;;;;;7.50;6.70;;;;;;;10.73;nan;98448.53;4995119;28;20568;-77
2023/05/02 05:41:06;;;;;;;8.20;7.50;;;;;;;10.78;nan;98443.41;4995522;28;20295;-77
2023/05/02 05:43:33;;;;;;;9.07;7.37;;;;;;;10.78;nan;98446.06;4995503;28;20298;-77
2023/05/02 05:45:59;;;;;;;7.53;6.83;;;;;;;10.90;nan;98444.38;4995329;28;20224;-77
2023/05/02 05:48:26;;;;;;;8.43;7.70;;;;;;;10.90;nan;98456.84;4994843;28;20558;-76
2023/05/02 05:50:52;;;;;;;8.80;7.20;;;;;;;10.84;nan;98458.53;4995586;28;20208;-77
2023/05/02 05:53:19;;;;;;;8.87;7.97;;;;;;;10.92;nan;98465.44;4995100;28;20203;-76
2023/05/02 05:55:46;;;;;;;9.03;8.10;;;;;;;10.86;nan;98461.78;4995183;28;20223;-76
2023/05/02 05:58:13;;;;;;;8.13;7.33;;;;;;;10.93;nan;98466.28;4995286;28;20207;-76
2023/05/02 06:00:40;;;;;;;8.07;7.33;;;;;;;10.95;nan;98473.03;4995009;28;20681;-76
2023/05/02 06:03:06;;;;;;;10.93;7.53;;;;;;;11.16;nan;98475.34;4995086;28;20596;-77
2023/05/02 06:05:33;;;;;;;8.43;7.63;;;;;;;11.07;nan;98471.31;4994785;28;20235;-76
2023/05/02 06:08:00;;;;;;;8.33;7.60;;;;;;;11.08;nan;98475.59;4995010;28;20215;-76
2023/05/02 06:10:26;;;;;;;8.47;7.67;;;;;;;11.02;nan;98477.28;4994765;28;20535;-76
2023/05/02 06:12:52;;;;;;;9.43;8.53;;;;;;;11.07;nan;98482.78;4994853;28;20211;-77
2023/05/02 06:15:19;;;;;;;9.07;8.23;;;;;;;11.14;nan;98480.88;4994613;28;20311;-76
2023/05/02 06:17:45;;;;;;;11.17;8.73;;;;;;;11.12;nan;98491.97;4994416;28;20287;-76
2023/05/02 06:20:12;;;;;;;8.67;7.97;;;;;;;11.07;nan;98490.75;4994770;28;20231;-76
2023/05/02 06:22:39;;;;;;;9.80;8.90;;;;;;;11.14;nan;98494.19;4994646;28;20204;-76
2023/05/02 06:25:06;;;;;;;11.40;8.73;;;;;;;11.21;nan;98493.38;4994621;28;20586;-76
2023/05/02 06:27:32;;;;;;;9.40;8.60;;;;;;;11.35;nan;98506.38;4994345;28;20774;-76
2023/05/02 06:29:59;;;;;;;10.10;9.17;;;;;;;11.32;nan;98506.00;4995524;28;20211;-76
2023/05/02 06:32:25;;;;;;;10.23;9.33;;;;;;;11.36;nan;98507.22;4994508;28;20234;-72
2023/05/02 06:34:51;;;;;;;10.20;9.20;;;;;;;11.44;nan;98514.94;4994002;28;20612;-72
2023/05/02 06:37:18;;;;;;;11.00;9.87;;;;;;;11.37;nan;98511.50;4994126;28;20219;-73
2023/05/02 06:39:44;;;;;;;10.23;9.23;;;;;;;11.52;nan;98512.03;4994351;28;20570;-72
2023/05/02 06:42:11;;;;;;;10.90;9.80;;;;;;;11.51;nan;98518.38;4994465;28;20214;-72
2023/05/02 06:44:38;;;;;;;10.30;9.30;;;;;;;11.54;nan;98510.81;4994379;28;20231;-72
2023/05/02 06:47:05;;;;;;;12.03;10.83;;;;;;;11.65;nan;98517.31;4994292;28;20249;-72
2023/05/02 06:49:32;;;;;;;11.47;10.43;;;;;;;11.71;nan;98522.59;4994650;28;20560;-72
2023/05/02 06:51:58;;;;;;;11.93;10.77;;;;;;;11.71;nan;98521.78;4993497;28;20676;-72
2023/05/02 06:54:25;;;;;;;12.47;11.27;;;;;;;11.61;nan;98526.78;4994346;28;20210;-72
2023/05/02 06:56:52;;;;;;;13.87;12.67;;;;;;;11.55;nan;98528.41;4994184;28;20231;-72
2023/05/02 06:59:18;;;;;;;14.97;13.10;;;;;;;11.53;nan;98527.00;4994107;28;20239;-73
2023/05/02 07:01:45;;;;;;;14.97;13.40;;;;;;;11.45;nan;98529.88;4994179;28;20209;-73
2023/05/02 07:04:11;;;;;;;14.60;13.33;;;;;;;11.36;nan;98539.16;4994099;28;20233;-74
2023/05/02 07:06:37;;;;;;;14.37;13.17;;;;;;;11.48;nan;98548.13;4994196;28;20227;-73
2023/05/02 07:09:04;;;;;;;14.33;13.03;;;;;;;11.63;nan;98541.50;4993856;28;20587;-73
2023/05/02 07:11:30;;;;;;;15.53;14.13;;;;;;;11.34;nan;98549.22;4994071;28;20669;-72
2023/05/02 07:13:57;;;;;;;16.30;14.80;;;;;;;11.40;nan;98548.34;4993799;28;20531;-72
2023/05/02 07:16:23;;;;;;;15.63;14.13;;;;;;;11.47;nan;98552.63;4993948;28;20254;-72
2023/05/02 07:18:50;;;;;;;17.00;15.23;;;;;;;11.41;nan;98553.47;4993960;28;20204;-72
2023/05/02 07:21:17;;;;;;;17.50;15.80;;;;;;;11.43;nan;98562.03;4993872;28;20206;-72
2023/05/02 07:23:44;;;;;;;16.70;15.20;;;;;;;11.32;nan;98562.72;4993910;28;20208;-72
2023/05/02 07:26:10;;;;;;;18.03;16.33;;;;;;;11.43;nan;98566.56;4993755;28;20231;-72
2023/05/02 07:28:37;;;;;;;17.30;15.70;;;;;;;11.48;nan;98567.53;4993773;28;20219;-72
2023/05/02 07:31:03;;;;;;;17.33;15.60;;;;;;;11.57;nan;98563.63;4993842;28;20207;-72
2023/05/02 07:33:29;;;;;;;18.67;16.70;;;;;;;11.48;nan;98564.88;4993495;28;20719;-73
2023/05/02 07:35:56;;;;;;;17.67;16.07;;;;;;;11.62;nan;98561.16;4993205;28;20707;-73
2023/05/02 07:38:22;;;;;;;17.80;16.03;;;;;;;11.50;nan;98573.50;4993414;28;20257;-72
2023/05/02 07:40:48;;;;;;;18.50;16.80;;;;;;;11.57;nan;98571.59;4994107;28;20211;-72
2023/05/02 07:43:15;;;;;;;17.33;15.57;;;;;;;11.69;nan;98566.44;4993757;28;20223;-72
2023/05/02 07:45:41;;;;;;;20.00;17.90;;;;;;;11.56;nan;98564.66;4993669;28;20234;-73
2023/05/02 07:48:07;;;;;;;18.93;17.27;;;;;;;11.93;nan;98566.50;4993488;28;20212;-72
2023/05/02 07:50:34;;;;;;;19.03;17.10;;;;;;;11.81;nan;98572.75;4993717;28;20629;-72
2023/05/02 07:53:00;;;;;;;18.77;17.03;;;;;;;11.81;nan;98575.41;4993979;28;20205;-72
2023/05/02 07:55:27;;;;;;;20.17;18.27;;;;;;;11.77;nan;98574.19;4993768;28;20227;-73
2023/05/02 07:57:53;;;;;;;20.03;17.67;;;;;;;11.82;nan;98577.88;4993173;28;20721;-73
2023/05/02 08:00:20;;;;;;;19.90;18.10;;;;;;;11.77;nan;98579.53;4993623;28;20679;-72
2023/05/02 08:02:46;;;;;;;20.07;18.13;;;;;;;11.66;nan;98586.34;4996267;28;20209;-73
2023/05/02 08:05:13;;;;;;;21.70;19.67;;;;;;;11.70;nan;98584.88;4997457;28;20231;-72
2023/05/02 08:07:39;;;;;;;21.67;19.57;;;;;;;11.77;nan;98585.69;4997370;28;20274;-72
2023/05/02 08:10:07;;;;;;;21.27;19.27;;;;;;;11.90;nan;98588.28;4997422;28;20196;-72
2023/05/02 08:12:38;;;;;;;21.63;19.63;;;;;;;11.80;nan;98601.22;4997327;28;20207;-73
2023/05/02 08:15:07;;;;;;;21.23;19.23;;;;;;;11.88;nan;98600.97;4997644;28;20193;-72
2023/05/02 08:17:33;;;;;;;22.50;20.33;;;;;;;12.10;nan;98612.94;4997153;28;20215;-72
2023/05/02 08:20:00;;;;;;;20.97;18.97;;;;;;;12.07;nan;98613.34;4996974;28;20215;-73
2023/05/02 08:22:26;;;;;;;21.10;19.10;;;;;;;12.05;nan;98610.09;4996814;28;20211;-72
2023/05/02 08:24:53;;;;;;;22.03;19.97;;;;;;;12.08;nan;98612.31;4997130;28;20240;-72
2023/05/02 08:27:19;;;;;;;23.93;21.73;;;;;;;12.09;nan;98605.97;4996761;28;20207;-72
2023/05/02 08:29:45;;;;;;;24.03;21.73;;;;;;;12.11;nan;98608.44;4997111;28;20205;-73
2023/05/02 08:32:12;;;;;;;21.77;19.67;;;;;;;12.34;nan;98608.69;4997056;28;20205;-73
2023/05/02 08:34:38;;;;;;;23.00;20.50;;;;;;;12.26;nan;98601.75;4996952;28;20201;-73
2023/05/02 08:37:09;;;;;;;23.87;21.30;;;;;;;12.56;nan;98605.41;4996496;28;20224;-73
2023/05/02 08:39:35;;;;;;;23.57;21.27;;;;;;;12.54;nan;98615.50;4996636;28;20260;-72
2023/05/02 08:42:05;;;;;;;22.20;20.07;;;;;;;12.79;nan;98613.63;4996819;28;20214;-72
2023/05/02 08:44:32;;;;;;;22.37;20.07;;;;;;;12.65;nan;98609.44;4996698;28;20211;-73
2023/05/02 08:47:00;;;;;;;21.57;19.47;;;;;;;12.79;nan;98618.94;4996665;28;20253;-73
2023/05/02 08:49:29;;;;;;;22.93;20.77;;;;;;;12.95;nan;98618.41;4996449;28;20221;-73
2023/05/02 08:51:57;;;;;;;20.67;18.70;;;;;;;13.35;nan;98618.84;4996617;28;20688;-73
2023/05/02 08:54:25;;;;;;;20.67;18.60;;;;;;;13.27;nan;98619.94;4997146;28;20221;-72
2023/05/02 08:56:53;;;;;;;22.60;20.40;;;;;;;13.01;nan;98620.22;4979376;28;20240;-73
2023/05/02 08:59:20;;;;;;;21.73;19.63;;;;;;;13.04;nan;98618.97;4996179;28;20587;-73
2023/05/02 09:01:52;;;;;;;25.90;21.33;;;;;;;13.03;nan;98620.00;4997630;28;20207;-73
2023/05/02 09:04:24;;;;;;;22.97;20.50;;;;;;;12.89;nan;98623.81;4996156;28;20562;-73
2023/05/02 09:06:50;;;;;;;23.37;19.77;;;;;;;13.23;nan;98616.09;4996507;28;20565;-73
2023/05/02 09:09:17;;;;;;;21.00;19.00;;;;;;;13.01;nan;98622.88;4996034;28;20215;-72
2023/05/02 09:11:47;;;;;;;21.87;19.60;;;;;;;13.66;nan;98624.81;4996431;28;20217;-72
2023/05/02 09:14:17;;;;;;;22.33;19.23;;;;;;;13.50;nan;98628.09;4995527;28;20215;-72
2023/05/02 09:16:43;;;;;;;21.93;19.63;;;;;;;14.02;nan;98634.66;4996133;28;20591;-72
2023/05/02 09:19:11;;;;;;;20.50;18.50;;;;;;;13.39;nan;98642.19;4996430;28;20207;-74
2023/05/02 09:21:40;;;;;;;21.70;19.23;;;;;;;13.54;nan;98641.81;4996042;28;20210;-74
2023/05/02 09:24:20;;;;;;;19.73;17.67;;;;;;;13.85;nan;98637.13;4995945;28;20214;-73
2023/05/02 09:27:01;;;;;;;20.50;18.50;;;;;;;13.84;nan;98635.47;4995617;28;20238;-73
2023/05/02 09:29:34;;;;;;;20.13;18.17;;;;;;;13.91;nan;98636.22;4995681;28;20204;-73
2023/05/02 09:32:01;;;;;;;21.23;19.27;;;;;;;13.85;nan;98633.63;4995959;28;20195;-73
2023/05/02 09:34:27;;;;;;;21.93;19.80;;;;;;;13.89;nan;98638.28;4995804;28;20214;-73
2023/05/02 09:36:53;;;;;;;21.23;19.23;;;;;;;14.10;nan;98635.13;4995408;28;20294;-73
2023/05/02 09:39:22;;;;;;;21.37;19.30;;;;;;;14.25;nan;98640.09;4995989;28;20215;-73
2023/05/02 09:41:49;;;;;;;20.67;18.77;;;;;;;13.95;nan;98636.56;4995175;28;20208;-73
2023/05/02 09:44:18;;;;;;;19.27;17.47;;;;;;;14.04;nan;98635.22;4995515;28;20214;-73
2023/05/02 09:46:49;;;;;;;20.80;18.70;;;;;;;14.18;nan;98634.81;4995232;28;20576;-73
2023/05/02 09:49:18;;;;;;;20.13;18.23;;;;;;;14.18;nan;98631.31;4995520;28;20204;-73
2023/05/02 09:51:46;;;;;;;22.57;20.37;;;;;;;14.03;nan;98631.75;4995582;28;20207;-73
2023/05/02 09:54:13;;;;;;;21.47;19.37;;;;;;;13.76;nan;98637.66;4995465;28;20313;-73
2023/05/02 09:56:56;;;;;;;21.07;18.90;;;;;;;13.81;nan;98629.78;4994958;28;20223;-73
2023/05/02 09:59:23;;;;;;;21.53;19.53;;;;;;;13.69;nan;98637.75;4995263;28;20210;-73
2023/05/02 10:02:00;;;;;;;22.53;20.00;;;;;;;14.21;nan;98636.25;4994914;28;20211;-73
2023/05/02 10:04:27;;;;;;;21.43;18.87;;;;;;;14.77;nan;98637.41;4995134;28;20200;-73
2023/05/02 10:06:55;;;;;;;21.70;19.67;;;;;;;14.80;nan;98645.00;4994975;28;20238;-73
2023/05/02 10:09:22;;;;;;;21.63;19.53;;;;;;;14.37;nan;98641.75;4995259;28;20258;-73
2023/05/02 10:11:56;;;;;;;20.57;18.47;;;;;;;14.27;nan;98648.69;4995073;28;20205;-73
2023/05/02 10:14:27;;;;;;;20.57;18.67;;;;;;;14.97;nan;98653.16;4994700;28;20206;-73
2023/05/02 10:17:05;;;;;;;21.37;19.27;;;;;;;14.54;nan;98652.63;4994871;28;20233;-73
2023/05/02 10:20:06;;;;;;;21.27;19.27;;;;;;;14.70;nan;98647.41;4994969;28;20196;-73
2023/05/02 10:22:36;;;;;;;21.87;19.73;;;;;;;14.74;nan;98643.22;4994486;28;20210;-73
2023/05/02 10:25:03;;;;;;;20.27;18.40;;;;;;;14.72;nan;98645.34;4993672;28;20207;-73
2023/05/02 10:27:31;;;;;;;20.17;18.00;;;;;;;15.21;nan;98638.72;4994481;28;20215;-73
2023/05/02 10:30:03;;;;;;;20.00;18.20;;;;;;;15.46;nan;98637.44;4994596;28;20266;-73
2023/05/02 10:32:29;;;;;;;19.77;17.93;;;;;;;15.37;nan;98636.16;4994803;28;20234;-73
2023/05/02 10:35:04;;;;;;;19.47;17.77;;;;;;;15.27;nan;98635.91;4994739;28;20310;-73
2023/05/02 10:37:32;;;;;;;16.93;15.33;;;;;;;15.46;nan;98636.59;4994716;28;20201;-73
2023/05/02 10:40:00;;;;;;;18.23;16.53;;;;;;;15.77;nan;98634.31;4994779;28;20214;-73
2023/05/02 10:42:28;;;;;;;17.33;15.53;;;;;;;15.64;nan;98633.75;4994157;28;20753;-73
2023/05/02 10:44:54;;;;;;;17.77;16.17;;;;;;;15.10;nan;98634.97;4994286;28;20203;-73
2023/05/02 10:47:25;;;;;;;17.93;16.23;;;;;;;14.86;nan;98638.72;4994463;28;20628;-73
2023/05/02 10:50:00;;;;;;;18.87;16.87;;;;;;;14.84;nan;98626.59;4994554;28;20195;-73
2023/05/02 10:52:36;;;;;;;18.97;17.13;;;;;;;14.63;nan;98625.31;4993948;28;20669;-73
2023/05/02 10:55:24;;;;;;;15.33;13.93;;;;;;;15.62;nan;98634.03;4994401;28;20191;-73
2023/05/02 10:57:57;;;;;;;18.20;16.10;;;;;;;15.81;nan;98616.72;4994232;28;20254;-73
2023/05/02 11:00:34;;;;;;;19.30;17.40;;;;;;;15.94;nan;98620.97;4994386;28;20422;-73
2023/05/02 11:03:01;;;;;;;18.63;16.80;;;;;;;16.02;nan;98621.41;4994425;28;20230;-73
2023/05/02 11:05:28;;;;;;;17.33;15.60;;;;;;;15.97;nan;98618.63;4994151;28;20227;-73
2023/05/02 11:08:16;;;;;;;17.40;15.70;;;;;;;15.80;nan;98616.94;4993935;28;20223;-73
2023/05/02 11:10:44;;;;;;;17.13;15.33;;;;;;;15.81;nan;98619.41;4994086;28;20253;-73
2023/05/02 11:13:11;;;;;;;16.07;14.40;;;;;;;15.49;nan;98620.88;4993877;28;20708;-73
2023/05/02 11:15:40;;;;;;;15.73;14.23;;;;;;;15.78;nan;98614.50;4994070;28;20229;-73
2023/05/02 11:18:11;;;;;;;15.93;14.53;;;;;;;15.49;nan;98615.53;4994015;28;20688;-73
2023/05/02 11:20:42;;;;;;;17.17;15.50;;;;;;;15.43;nan;98611.09;4994047;28;20198;-73
2023/05/02 11:23:14;;;;;;;15.33;13.83;;;;;;;16.17;nan;98616.34;4993911;28;20207;-73
2023/05/02 11:25:42;;;;;;;15.80;14.33;;;;;;;16.26;nan;98612.22;4997089;28;20231;-73
2023/05/02 11:28:34;;;;;;;16.63;14.93;;;;;;;16.21;nan;98614.81;4994650;28;20207;-73
2023/05/02 11:31:00;;;;;;;15.17;13.80;;;;;;;15.60;nan;98617.34;4993580;28;20211;-73
2023/05/02 11:33:28;;;;;;;15.37;13.77;;;;;;;16.43;nan;98604.19;4993884;28;20207;-73
2023/05/02 11:35:57;;;;;;;18.57;14.87;;;;;;;16.64;nan;98598.13;4993651;28;20226;-73
2023/05/02 11:38:24;;;;;;;17.63;14.00;;;;;;;16.96;nan;98613.38;4998732;28;20246;-73
2023/05/02 11:40:58;;;;;;;16.27;14.03;;;;;;;17.11;nan;98602.88;4998008;28;20293;-73
2023/05/02 11:43:26;;;;;;;16.43;14.93;;;;;;;16.66;nan;98596.00;4997483;28;20191;-73
2023/05/02 11:45:58;;;;;;;15.93;14.53;;;;;;;16.64;nan;98609.66;4997755;28;20231;-73
2023/05/02 11:48:26;;;;;;;17.23;15.53;;;;;;;17.02;nan;98596.31;4997686;28;20207;-73
2023/05/02 11:50:57;;;;;;;17.00;15.40;;;;;;;16.63;nan;98601.84;4997742;28;20265;-73
2023/05/02 11:53:28;;;;;;;16.77;15.17;;;;;;;16.48;nan;98604.28;4997861;28;20210;-73
2023/05/02 11:55:57;;;;;;;16.63;15.00;;;;;;;16.50;nan;98602.97;4997367;28;20227;-73